LEMD

Adolfo Suárez Madrid–Barajas Airport

Madrid, Spain
TAF LEMD 171100Z 1712/1818 VRB04KT CAVOK TX11/1715Z TNM01/1806Z PROB40 TEMPO 1718/1811 3500 BR BKN005 PROB30 TEMPO 1805/1810 1200 BCFG BKN003
Issued Valid From Valid To
Dec-17 @ 11:00 UTC
(2 hours ago)
Dec-17 @ 12:00 UTC
(56 minutes ago)
Dec-18 @ 18:00 UTC
(-1 days ago)
Dec-17 @ 12:00 to Dec-18 @ 18:00
TAF LEMD 171100Z 1712/1818 VRB04KT CAVOK TX11/1715Z TNM01/1806Z
Wind Visibility Clouds
Variable at 4 knots 10,000+ meters
  • No significant clouds
Temporary  (Probability 40%) Dec-17 @ 18:00 to Dec-18 @ 11:00
PROB40 TEMPO 1718/1811 3500 BR BKN005
Visibility Clouds Conditions
3,492 meters
  • Broken at 500' AGL
  • Mist
Temporary  (Probability 30%) Dec-18 @ 05:00 to Dec-18 @ 10:00
PROB30 TEMPO 1805/1810 1200 BCFG BKN003
Visibility Clouds Conditions
1,207 meters
  • Broken at 300' AGL
  • Patches of
  • Fog
TAF LEMD 171100Z 1712/1818 VRB04KT CAVOK TX11/1715Z TNM01/1806Z PROB40 TEMPO 1718/1811 3500 BR BKN005 PROB30 TEMPO 1805/1810 1200 BCFG BKN003
Issued Dec-17 @ 11:00 UTC
(2 hours ago)
Valid From Dec-17 @ 12:00 UTC
(56 minutes ago)
Valid To Dec-18 @ 18:00 UTC
(-1 days ago)
Dec-17 @ 12:00 - Dec-18 @ 18:00
Wind Visibility
Variable at 4 knots 10,000+ meters
Clouds
  • No significant clouds
Probability 40% Temporary Dec-17 @ 18:00 - Dec-18 @ 11:00
Clouds
  • Broken at 500' AGL
Conditions
  • Mist
Probability 30% Temporary Dec-18 @ 05:00 - Dec-18 @ 10:00
Clouds
  • Broken at 300' AGL
Conditions
  • Patches of
  • Fog